SWR5TV LPPR-LSZH
Flight info
| Callsign | SWR5TV |
|---|---|
| Flight time | 1h 57m |
| Altitude | 34000 |
| Route | BELDU DCT CANAR DCT ADORO DCT FITSE DCT DGO DCT LPA DCT GOSVI DCT TOPTU DCT TOU DCT GAI DCT MEN DCT NINUN DCT LATAM DCT ETREK DCT LTP DCT SOPLO DCT OMASI DCT KINNI DCT SOSAL/N0438F320 DCT KORED N871 BERSU |
| Aircraft | A321/M-SDE3FGHIRWY/LB1 |
Departure
| Time | 2026-05-04 15:07 |
|---|---|
| Airport | Francisco de Sá Carneiro Airport (LPPR) |
Arrival
| Time | 2026-05-04 17:04 |
|---|---|
| Airport | Zürich Airport (LSZH) |
| Time | Latitude | Longitude | Altitude | Speed | Heading |
|---|---|---|---|---|---|
| 2026-05-04 14:46 | 41.23831 | -8.67384 | 245 ft | 0 kts | 78° |
| 2026-05-04 14:57 | 41.23831 | -8.67386 | 244 ft | 2 kts | 78° |
| 2026-05-04 14:57 | 41.23827 | -8.67420 | 243 ft | 4 kts | 88° |
| 2026-05-04 14:58 | 41.23829 | -8.67455 | 240 ft | 4 kts | 111° |
| 2026-05-04 14:58 | 41.23843 | -8.67480 | 239 ft | 3 kts | 164° |
| 2026-05-04 14:58 | 41.23846 | -8.67481 | 239 ft | 0 kts | 169° |
| 2026-05-04 15:00 | 41.23845 | -8.67481 | 239 ft | 2 kts | 169° |
| 2026-05-04 15:00 | 41.23764 | -8.67461 | 238 ft | 20 kts | 169° |
| 2026-05-04 15:00 | 41.23630 | -8.67426 | 238 ft | 19 kts | 168° |
| 2026-05-04 15:01 | 41.23402 | -8.67365 | 239 ft | 11 kts | 168° |
| 2026-05-04 15:01 | 41.23337 | -8.67409 | 236 ft | 11 kts | 247° |
| 2026-05-04 15:01 | 41.23326 | -8.67476 | 237 ft | 0 kts | 258° |
| 2026-05-04 15:01 | 41.23325 | -8.67482 | 238 ft | 3 kts | 258° |
| 2026-05-04 15:02 | 41.23319 | -8.67524 | 235 ft | 5 kts | 259° |
| 2026-05-04 15:02 | 41.23313 | -8.67565 | 238 ft | 4 kts | 259° |
| 2026-05-04 15:02 | 41.23309 | -8.67592 | 235 ft | 0 kts | 258° |
| 2026-05-04 15:03 | 41.23308 | -8.67599 | 235 ft | 5 kts | 258° |
| 2026-05-04 15:03 | 41.23294 | -8.67692 | 237 ft | 9 kts | 258° |
| 2026-05-04 15:03 | 41.23294 | -8.67724 | 238 ft | 2 kts | 301° |
| 2026-05-04 15:03 | 41.23321 | -8.67736 | 238 ft | 5 kts | 349° |
| 2026-05-04 15:04 | 41.23324 | -8.67737 | 238 ft | 0 kts | 349° |
| 2026-05-04 15:06 | 41.23385 | -8.67753 | 238 ft | 34 kts | 349° |
| 2026-05-04 15:06 | 41.23858 | -8.67877 | 224 ft | 102 kts | 349° |
| 2026-05-04 15:07 | 41.25871 | -8.68395 | 558 ft | 165 kts | 346° |
| 2026-05-04 15:07 | 41.26993 | -8.68716 | 1274 ft | 165 kts | 343° |
| 2026-05-04 15:07 | 41.28154 | -8.69036 | 1665 ft | 179 kts | 344° |
| 2026-05-04 15:07 | 41.29428 | -8.69374 | 1858 ft | 199 kts | 345° |
| 2026-05-04 15:08 | 41.30848 | -8.69747 | 2083 ft | 218 kts | 345° |
| 2026-05-04 15:08 | 41.32409 | -8.70158 | 2312 ft | 240 kts | 346° |
| 2026-05-04 15:08 | 41.34093 | -8.70596 | 2909 ft | 249 kts | 346° |
| 2026-05-04 15:08 | 41.35803 | -8.71037 | 3718 ft | 251 kts | 346° |
| 2026-05-04 15:09 | 41.37526 | -8.71480 | 4558 ft | 253 kts | 346° |
| 2026-05-04 15:09 | 41.39277 | -8.71873 | 5328 ft | 258 kts | 355° |
| 2026-05-04 15:09 | 41.41064 | -8.71438 | 6015 ft | 270 kts | 22° |
| 2026-05-04 15:10 | 41.43268 | -8.67370 | 7337 ft | 291 kts | 77° |
| 2026-05-04 15:10 | 41.43667 | -8.64701 | 8058 ft | 295 kts | 78° |
| 2026-05-04 15:10 | 41.44051 | -8.61252 | 8888 ft | 300 kts | 86° |
| 2026-05-04 15:11 | 41.44159 | -8.58461 | 9615 ft | 302 kts | 87° |
| 2026-05-04 15:11 | 41.44241 | -8.55645 | 10268 ft | 307 kts | 88° |
| 2026-05-04 15:11 | 41.44313 | -8.52719 | 10478 ft | 328 kts | 88° |
| 2026-05-04 15:11 | 41.44387 | -8.49572 | 10609 ft | 349 kts | 88° |
| 2026-05-04 15:12 | 41.44468 | -8.46246 | 10739 ft | 369 kts | 88° |
| 2026-05-04 15:12 | 41.44554 | -8.42773 | 11146 ft | 379 kts | 87° |
| 2026-05-04 15:12 | 41.44643 | -8.39247 | 11756 ft | 382 kts | 88° |
| 2026-05-04 15:12 | 41.44737 | -8.35687 | 12364 ft | 386 kts | 87° |
| 2026-05-04 15:13 | 41.44834 | -8.32076 | 12945 ft | 391 kts | 88° |
| 2026-05-04 15:13 | 41.44929 | -8.28432 | 13563 ft | 395 kts | 88° |
| 2026-05-04 15:13 | 41.45023 | -8.24752 | 14107 ft | 400 kts | 88° |
| 2026-05-04 15:13 | 41.45115 | -8.21029 | 14626 ft | 404 kts | 88° |
| 2026-05-04 15:14 | 41.45205 | -8.17277 | 15173 ft | 407 kts | 88° |
| 2026-05-04 15:14 | 41.45296 | -8.13496 | 15667 ft | 411 kts | 88° |
| 2026-05-04 15:14 | 41.45388 | -8.09671 | 16169 ft | 415 kts | 88° |
| 2026-05-04 15:14 | 41.45479 | -8.05812 | 16685 ft | 418 kts | 88° |
| 2026-05-04 15:15 | 41.45571 | -8.01918 | 17144 ft | 422 kts | 88° |
| 2026-05-04 15:15 | 41.45662 | -7.97989 | 17609 ft | 426 kts | 88° |
| 2026-05-04 15:15 | 41.45752 | -7.94019 | 18054 ft | 431 kts | 88° |
| 2026-05-04 15:16 | 41.45936 | -7.85973 | 18879 ft | 438 kts | 88° |
| 2026-05-04 15:16 | 41.46027 | -7.81902 | 19287 ft | 441 kts | 88° |
| 2026-05-04 15:16 | 41.46199 | -7.73663 | 20132 ft | 448 kts | 89° |
| 2026-05-04 15:17 | 41.46282 | -7.69497 | 20526 ft | 451 kts | 89° |
| 2026-05-04 15:17 | 41.46453 | -7.61074 | 21305 ft | 458 kts | 89° |
| 2026-05-04 15:17 | 41.46539 | -7.56817 | 21688 ft | 461 kts | 89° |
| 2026-05-04 15:18 | 41.46622 | -7.52535 | 22094 ft | 463 kts | 89° |
| 2026-05-04 15:18 | 41.46702 | -7.48227 | 22495 ft | 466 kts | 89° |
| 2026-05-04 15:18 | 41.46779 | -7.43949 | 22867 ft | 470 kts | 89° |
| 2026-05-04 15:19 | 41.46930 | -7.35175 | 23610 ft | 476 kts | 89° |
| 2026-05-04 15:19 | 41.47006 | -7.30749 | 23937 ft | 479 kts | 89° |
| 2026-05-04 15:19 | 41.47160 | -7.21835 | 24499 ft | 484 kts | 89° |
| 2026-05-04 15:20 | 41.47236 | -7.17341 | 24826 ft | 485 kts | 90° |
| 2026-05-04 15:20 | 41.47309 | -7.12833 | 25152 ft | 487 kts | 90° |
| 2026-05-04 15:20 | 41.47379 | -7.08307 | 25454 ft | 489 kts | 90° |
| 2026-05-04 15:20 | 41.47450 | -7.03767 | 25747 ft | 492 kts | 90° |
| 2026-05-04 15:21 | 41.47518 | -6.99193 | 26031 ft | 495 kts | 90° |
| 2026-05-04 15:21 | 41.47580 | -6.94595 | 26323 ft | 497 kts | 90° |
| 2026-05-04 15:21 | 41.47697 | -6.85305 | 26882 ft | 502 kts | 90° |
| 2026-05-04 15:22 | 41.47756 | -6.80632 | 27166 ft | 504 kts | 90° |
| 2026-05-04 15:22 | 41.47815 | -6.75956 | 27480 ft | 505 kts | 90° |
| 2026-05-04 15:22 | 41.47925 | -6.66536 | 28035 ft | 509 kts | 90° |
| 2026-05-04 15:23 | 41.47979 | -6.61806 | 28313 ft | 511 kts | 90° |
| 2026-05-04 15:23 | 41.48033 | -6.57071 | 28663 ft | 511 kts | 90° |
| 2026-05-04 15:23 | 41.48085 | -6.52402 | 29023 ft | 510 kts | 91° |
| 2026-05-04 15:23 | 41.48135 | -6.47615 | 29383 ft | 510 kts | 91° |
| 2026-05-04 15:24 | 41.48208 | -6.39756 | 30005 ft | 509 kts | 91° |
| 2026-05-04 15:24 | 41.48493 | -6.30337 | 30594 ft | 509 kts | 83° |
| 2026-05-04 15:25 | 41.49197 | -6.25707 | 30866 ft | 510 kts | 74° |
| 2026-05-04 15:25 | 41.50790 | -6.19831 | 31227 ft | 509 kts | 66° |
| 2026-05-04 15:25 | 41.51695 | -6.16883 | 31423 ft | 509 kts | 66° |
| 2026-05-04 15:26 | 41.54360 | -6.08118 | 31977 ft | 509 kts | 67° |
| 2026-05-04 15:26 | 41.55680 | -6.03736 | 32278 ft | 508 kts | 67° |
| 2026-05-04 15:26 | 41.58308 | -5.94981 | 32866 ft | 507 kts | 67° |
| 2026-05-04 15:27 | 41.59604 | -5.90655 | 33142 ft | 507 kts | 67° |
| 2026-05-04 15:27 | 41.62230 | -5.81905 | 33695 ft | 507 kts | 66° |
| 2026-05-04 15:28 | 41.64848 | -5.73171 | 33951 ft | 503 kts | 67° |
| 2026-05-04 15:28 | 41.66138 | -5.68834 | 33967 ft | 501 kts | 67° |
| 2026-05-04 15:29 | 41.69971 | -5.55881 | 33964 ft | 498 kts | 67° |
| 2026-05-04 15:30 | 41.78872 | -5.25693 | 33973 ft | 498 kts | 68° |
| 2026-05-04 15:31 | 41.82658 | -5.12743 | 33985 ft | 497 kts | 68° |
| 2026-05-04 15:32 | 41.88929 | -4.91161 | 33998 ft | 496 kts | 68° |
| 2026-05-04 15:34 | 41.95146 | -4.69578 | 33992 ft | 495 kts | 69° |
| 2026-05-04 15:34 | 41.98843 | -4.56620 | 33990 ft | 495 kts | 69° |
| 2026-05-04 15:35 | 42.02531 | -4.43667 | 34004 ft | 494 kts | 69° |
| 2026-05-04 15:36 | 42.06191 | -4.30734 | 33998 ft | 493 kts | 69° |
| 2026-05-04 15:36 | 42.08628 | -4.22105 | 33995 ft | 493 kts | 69° |
| 2026-05-04 15:37 | 42.11053 | -4.13459 | 33985 ft | 493 kts | 69° |
| 2026-05-04 15:37 | 42.13469 | -4.04827 | 34020 ft | 493 kts | 70° |
| 2026-05-04 15:38 | 42.15886 | -3.96187 | 34015 ft | 492 kts | 70° |
| 2026-05-04 15:38 | 42.18285 | -3.87549 | 34009 ft | 492 kts | 70° |
| 2026-05-04 15:39 | 42.20675 | -3.78913 | 33985 ft | 491 kts | 70° |
| 2026-05-04 15:40 | 42.24247 | -3.65954 | 34003 ft | 491 kts | 70° |
| 2026-05-04 15:40 | 42.26620 | -3.57305 | 34013 ft | 491 kts | 70° |
| 2026-05-04 15:41 | 42.28992 | -3.48648 | 34007 ft | 491 kts | 70° |
| 2026-05-04 15:41 | 42.31360 | -3.39985 | 33998 ft | 491 kts | 71° |
| 2026-05-04 15:42 | 42.33711 | -3.31324 | 33996 ft | 491 kts | 71° |
| 2026-05-04 15:42 | 42.36038 | -3.22697 | 34001 ft | 491 kts | 71° |
| 2026-05-04 15:43 | 42.38375 | -3.14025 | 34013 ft | 490 kts | 71° |
| 2026-05-04 15:43 | 42.40711 | -3.05370 | 34010 ft | 489 kts | 70° |
| 2026-05-04 15:44 | 42.43279 | -2.96860 | 34005 ft | 489 kts | 67° |
| 2026-05-04 15:44 | 42.46068 | -2.88462 | 34007 ft | 488 kts | 66° |
| 2026-05-04 15:45 | 42.48821 | -2.80074 | 34003 ft | 488 kts | 68° |
| 2026-05-04 15:45 | 42.51474 | -2.71619 | 34004 ft | 487 kts | 68° |
| 2026-05-04 15:46 | 42.54109 | -2.63094 | 33986 ft | 486 kts | 68° |
| 2026-05-04 15:46 | 42.56712 | -2.54696 | 33989 ft | 485 kts | 68° |
| 2026-05-04 15:47 | 42.59332 | -2.46274 | 34005 ft | 485 kts | 68° |
| 2026-05-04 15:47 | 42.61952 | -2.37835 | 34003 ft | 484 kts | 69° |
| 2026-05-04 15:48 | 42.64554 | -2.29416 | 33998 ft | 483 kts | 69° |
| 2026-05-04 15:48 | 42.68428 | -2.16783 | 33981 ft | 483 kts | 69° |
| 2026-05-04 15:49 | 42.71008 | -2.08352 | 33989 ft | 483 kts | 69° |
| 2026-05-04 15:49 | 42.73589 | -1.99913 | 33996 ft | 483 kts | 69° |
| 2026-05-04 15:50 | 42.76161 | -1.91461 | 33995 ft | 483 kts | 69° |
| 2026-05-04 15:50 | 42.78724 | -1.82992 | 33958 ft | 483 kts | 70° |
| 2026-05-04 15:51 | 42.81274 | -1.74536 | 33960 ft | 483 kts | 70° |
| 2026-05-04 15:51 | 42.83830 | -1.66065 | 33963 ft | 483 kts | 70° |
| 2026-05-04 15:52 | 42.86378 | -1.57588 | 33967 ft | 483 kts | 70° |
| 2026-05-04 15:52 | 42.88913 | -1.49102 | 33956 ft | 483 kts | 71° |
| 2026-05-04 15:53 | 42.91446 | -1.40595 | 33990 ft | 485 kts | 71° |
| 2026-05-04 15:53 | 42.93983 | -1.32064 | 33988 ft | 486 kts | 71° |
| 2026-05-04 15:54 | 42.96503 | -1.23564 | 33993 ft | 486 kts | 71° |
| 2026-05-04 15:54 | 42.99032 | -1.14998 | 33991 ft | 486 kts | 71° |
| 2026-05-04 15:55 | 43.01554 | -1.06414 | 33968 ft | 488 kts | 71° |
| 2026-05-04 15:55 | 43.04091 | -0.97768 | 33982 ft | 491 kts | 71° |
| 2026-05-04 15:56 | 43.06631 | -0.89086 | 33978 ft | 493 kts | 71° |
| 2026-05-04 15:56 | 43.09170 | -0.80360 | 33986 ft | 494 kts | 71° |
| 2026-05-04 15:57 | 43.11713 | -0.71605 | 33978 ft | 494 kts | 72° |
| 2026-05-04 15:57 | 43.14241 | -0.62869 | 33997 ft | 493 kts | 72° |
| 2026-05-04 15:58 | 43.16755 | -0.54131 | 34001 ft | 493 kts | 72° |
| 2026-05-04 15:58 | 43.19267 | -0.45395 | 34004 ft | 492 kts | 72° |
| 2026-05-04 15:59 | 43.21771 | -0.36659 | 34001 ft | 492 kts | 72° |
| 2026-05-04 15:59 | 43.24263 | -0.27933 | 34008 ft | 492 kts | 72° |
| 2026-05-04 16:00 | 43.26747 | -0.19186 | 34006 ft | 491 kts | 72° |
| 2026-05-04 16:00 | 43.29217 | -0.10447 | 34004 ft | 491 kts | 72° |
| 2026-05-04 16:01 | 43.31680 | -0.01719 | 34002 ft | 491 kts | 72° |
| 2026-05-04 16:01 | 43.34150 | 0.07028 | 33970 ft | 489 kts | 73° |
| 2026-05-04 16:02 | 43.36601 | 0.15727 | 33977 ft | 489 kts | 73° |
| 2026-05-04 16:03 | 43.40240 | 0.28810 | 33986 ft | 488 kts | 74° |
| 2026-05-04 16:03 | 43.42663 | 0.37547 | 33982 ft | 487 kts | 74° |
| 2026-05-04 16:04 | 43.45059 | 0.46196 | 33966 ft | 486 kts | 74° |
| 2026-05-04 16:04 | 43.48657 | 0.59234 | 33976 ft | 484 kts | 74° |
| 2026-05-04 16:05 | 43.50639 | 0.66458 | 33973 ft | 484 kts | 74° |
| 2026-05-04 16:06 | 43.54208 | 0.79520 | 33919 ft | 483 kts | 75° |
| 2026-05-04 16:07 | 43.58921 | 0.96827 | 33927 ft | 483 kts | 75° |
| 2026-05-04 16:08 | 43.63595 | 1.14196 | 33935 ft | 483 kts | 75° |
| 2026-05-04 16:09 | 43.70444 | 1.35410 | 33940 ft | 494 kts | 57° |
| 2026-05-04 16:10 | 43.78630 | 1.50700 | 33919 ft | 494 kts | 58° |
| 2026-05-04 16:11 | 43.86751 | 1.66012 | 33947 ft | 491 kts | 57° |
| 2026-05-04 16:12 | 43.98739 | 1.88911 | 33935 ft | 488 kts | 58° |
| 2026-05-04 16:13 | 44.06413 | 2.04480 | 33918 ft | 489 kts | 58° |
| 2026-05-04 16:14 | 44.14135 | 2.20084 | 33922 ft | 489 kts | 58° |
| 2026-05-04 16:16 | 44.23780 | 2.39684 | 33909 ft | 492 kts | 57° |
| 2026-05-04 16:17 | 44.33466 | 2.59504 | 33927 ft | 495 kts | 58° |
| 2026-05-04 16:18 | 44.41155 | 2.75531 | 33942 ft | 499 kts | 59° |
| 2026-05-04 16:19 | 44.50498 | 2.95913 | 33959 ft | 498 kts | 59° |
| 2026-05-04 16:20 | 44.59888 | 3.16351 | 33953 ft | 499 kts | 59° |
| 2026-05-04 16:22 | 44.69259 | 3.36886 | 33971 ft | 500 kts | 59° |
| 2026-05-04 16:23 | 44.80458 | 3.61647 | 33976 ft | 501 kts | 59° |
| 2026-05-04 16:25 | 44.91625 | 3.86540 | 33960 ft | 500 kts | 59° |
| 2026-05-04 16:26 | 45.04567 | 4.15669 | 34002 ft | 500 kts | 60° |
| 2026-05-04 16:28 | 45.13768 | 4.36529 | 33980 ft | 500 kts | 59° |
| 2026-05-04 16:29 | 45.26596 | 4.65941 | 33976 ft | 501 kts | 60° |
| 2026-05-04 16:31 | 45.35719 | 4.87005 | 34035 ft | 499 kts | 60° |
| 2026-05-04 16:31 | 45.41764 | 4.99012 | 34042 ft | 498 kts | 48° |
| 2026-05-04 16:32 | 45.48758 | 5.09991 | 34025 ft | 498 kts | 48° |
| 2026-05-04 16:33 | 45.58032 | 5.24661 | 34031 ft | 498 kts | 48° |
| 2026-05-04 16:34 | 45.64949 | 5.35721 | 34040 ft | 497 kts | 49° |
| 2026-05-04 16:35 | 45.78546 | 5.57990 | 34026 ft | 495 kts | 49° |
| 2026-05-04 16:36 | 45.85340 | 5.69158 | 34057 ft | 495 kts | 49° |
| 2026-05-04 16:37 | 45.92102 | 5.80311 | 34056 ft | 492 kts | 49° |
| 2026-05-04 16:38 | 46.01063 | 5.95190 | 34038 ft | 492 kts | 49° |
| 2026-05-04 16:39 | 46.12216 | 6.13785 | 34065 ft | 490 kts | 50° |
| 2026-05-04 16:40 | 46.21047 | 6.28720 | 34062 ft | 489 kts | 50° |
| 2026-05-04 16:41 | 46.32043 | 6.47493 | 34053 ft | 489 kts | 50° |
| 2026-05-04 16:43 | 46.42280 | 6.65038 | 33738 ft | 488 kts | 51° |
| 2026-05-04 16:43 | 46.46645 | 6.72556 | 33194 ft | 487 kts | 51° |
| 2026-05-04 16:43 | 46.48826 | 6.76327 | 32927 ft | 486 kts | 51° |
| 2026-05-04 16:44 | 46.57457 | 6.91334 | 31860 ft | 484 kts | 52° |
| 2026-05-04 16:45 | 46.61693 | 6.98936 | 31351 ft | 483 kts | 53° |
| 2026-05-04 16:46 | 46.67981 | 7.10371 | 30607 ft | 482 kts | 53° |
| 2026-05-04 16:46 | 46.72179 | 7.17985 | 30113 ft | 481 kts | 53° |
| 2026-05-04 16:47 | 46.76376 | 7.25598 | 29559 ft | 481 kts | 53° |
| 2026-05-04 16:47 | 46.80561 | 7.33208 | 28998 ft | 482 kts | 53° |
| 2026-05-04 16:48 | 46.86840 | 7.44687 | 28172 ft | 481 kts | 53° |
| 2026-05-04 16:48 | 46.88922 | 7.48512 | 27902 ft | 480 kts | 53° |
| 2026-05-04 16:49 | 46.93068 | 7.56138 | 27338 ft | 477 kts | 53° |
| 2026-05-04 16:49 | 46.97191 | 7.63744 | 26141 ft | 475 kts | 53° |
| 2026-05-04 16:50 | 47.01268 | 7.71296 | 24967 ft | 470 kts | 53° |
| 2026-05-04 16:50 | 47.05300 | 7.78781 | 23843 ft | 465 kts | 53° |
| 2026-05-04 16:51 | 47.09295 | 7.86198 | 22587 ft | 461 kts | 53° |
| 2026-05-04 16:51 | 47.11278 | 7.89888 | 21945 ft | 458 kts | 53° |
| 2026-05-04 16:51 | 47.14699 | 7.97664 | 20716 ft | 450 kts | 66° |
| 2026-05-04 16:52 | 47.17333 | 8.05945 | 19540 ft | 444 kts | 66° |
| 2026-05-04 16:52 | 47.18639 | 8.10042 | 18966 ft | 441 kts | 66° |
| 2026-05-04 16:53 | 47.21205 | 8.18098 | 17776 ft | 428 kts | 66° |
| 2026-05-04 16:53 | 47.24995 | 8.29610 | 15896 ft | 408 kts | 63° |
| 2026-05-04 16:54 | 47.26348 | 8.33248 | 15296 ft | 403 kts | 61° |
| 2026-05-04 16:55 | 47.31751 | 8.47449 | 13057 ft | 385 kts | 62° |
| 2026-05-04 16:55 | 47.33575 | 8.54678 | 11980 ft | 370 kts | 82° |
| 2026-05-04 16:56 | 47.33570 | 8.62007 | 10267 ft | 338 kts | 99° |
| 2026-05-04 16:56 | 47.32906 | 8.71352 | 9573 ft | 290 kts | 99° |
| 2026-05-04 16:57 | 47.32690 | 8.74298 | 9443 ft | 288 kts | 99° |
| 2026-05-04 16:57 | 47.32256 | 8.80152 | 9118 ft | 287 kts | 99° |
| 2026-05-04 16:58 | 47.32914 | 8.88630 | 7975 ft | 291 kts | 52° |
| 2026-05-04 16:58 | 47.34518 | 8.90429 | 7345 ft | 293 kts | 23° |
| 2026-05-04 16:59 | 47.38513 | 8.90996 | 6320 ft | 283 kts | 349° |
| 2026-05-04 17:00 | 47.43525 | 8.84655 | 5445 ft | 227 kts | 287° |
| 2026-05-04 17:00 | 47.44122 | 8.78306 | 4557 ft | 189 kts | 276° |
| 2026-05-04 17:01 | 47.44393 | 8.74603 | 4027 ft | 176 kts | 276° |
| 2026-05-04 17:01 | 47.44646 | 8.71120 | 3554 ft | 161 kts | 276° |
| 2026-05-04 17:02 | 47.44868 | 8.68055 | 3112 ft | 144 kts | 275° |
| 2026-05-04 17:02 | 47.45077 | 8.65144 | 2684 ft | 142 kts | 275° |
| 2026-05-04 17:03 | 47.45184 | 8.63689 | 2452 ft | 142 kts | 275° |
| 2026-05-04 17:03 | 47.45285 | 8.62243 | 2230 ft | 143 kts | 275° |
| 2026-05-04 17:03 | 47.45493 | 8.59342 | 1811 ft | 140 kts | 275° |
| 2026-05-04 17:04 | 47.45699 | 8.56502 | 1435 ft | 135 kts | 273° |
| 2026-05-04 17:04 | 47.45822 | 8.54731 | 1395 ft | 32 kts | 275° |
| 2026-05-04 17:05 | 47.45734 | 8.54230 | 1384 ft | 19 kts | 221° |
| 2026-05-04 17:05 | 47.45585 | 8.54406 | 1386 ft | 16 kts | 108° |
| 2026-05-04 17:06 | 47.45498 | 8.54804 | 1396 ft | 25 kts | 107° |
| 2026-05-04 17:06 | 47.45436 | 8.55060 | 1401 ft | 25 kts | 110° |
| 2026-05-04 17:07 | 47.45427 | 8.55383 | 1408 ft | 12 kts | 29° |
| 2026-05-04 17:07 | 47.45474 | 8.55417 | 1412 ft | 10 kts | 26° |
| 2026-05-04 17:07 | 47.45524 | 8.55492 | 1412 ft | 11 kts | 84° |
| 2026-05-04 17:07 | 47.45517 | 8.55623 | 1412 ft | 7 kts | 96° |
| 2026-05-04 17:08 | 47.45487 | 8.55643 | 1411 ft | 5 kts | 182° |
| 2026-05-04 17:08 | 47.45434 | 8.55634 | 1410 ft | 0 kts | 186° |